Time;durP1;ratioP1;P1;durP2;ratioP2;P2;SDS_P1;SDS_P2;PMS_P1;PMS_P2;Temp;Humidity;BMP_temperature;BMP_pressure;BME280_temperature;BME280_humidity;BME280_pressure;Samples;Min_cycle;Max_cycle;Signal;HPM_P1;HPM_P2
2022/03/23 00:00:27;;;;;;;;;;;;;;;26.85;56.91;98276.81;621232;228;67012;-67
2022/03/23 00:02:55;;;;;;;;;;;;;;;26.83;56.86;98273.58;621227;228;65353;-67
2022/03/23 00:05:25;;;;;;;;;;;;;;;26.83;56.61;98273.58;621237;228;67267;-67
2022/03/23 00:07:51;;;;;;;;;;;;;;;26.81;56.54;98270.35;621329;228;67740;-67
2022/03/23 00:10:19;;;;;;;;;;;;;;;26.81;57.01;98270.35;621278;228;65806;-67
2022/03/23 00:12:46;;;;;;;;;;;;;;;26.78;56.95;98274.41;621277;228;67037;-67
2022/03/23 00:15:14;;;;;;;;;;;;;;;26.77;57.00;98268.22;621310;228;66623;-67
2022/03/23 00:17:42;;;;;;;;;;;;;;;26.76;57.62;98269.31;621761;228;65293;-67
2022/03/23 00:20:11;;;;;;;;;;;;;;;26.76;56.34;98269.31;622737;228;67063;-67
2022/03/23 00:22:39;;;;;;;;;;;;;;;26.76;57.52;98269.31;622579;228;65280;-67
2022/03/23 00:25:08;;;;;;;;;;;;;;;26.73;56.45;98264.45;622583;228;63129;-67
2022/03/23 00:27:36;;;;;;;;;;;;;;;26.72;57.46;98268.24;622596;228;64924;-66
2022/03/23 00:30:04;;;;;;;;;;;;;;;26.72;57.01;98264.74;622650;228;67063;-66
2022/03/23 00:32:32;;;;;;;;;;;;;;;26.69;57.02;98263.41;622674;228;65295;-66
2022/03/23 00:35:01;;;;;;;;;;;;;;;26.71;57.04;98263.95;622690;228;67605;-66
2022/03/23 00:37:29;;;;;;;;;;;;;;;26.68;57.43;98256.41;622657;228;66996;-66
2022/03/23 00:39:57;;;;;;;;;;;;;;;26.69;57.42;98254.52;622693;228;62881;-66
2022/03/23 00:42:24;;;;;;;;;;;;;;;26.66;57.54;98261.27;622613;228;65324;-66
2022/03/23 00:44:53;;;;;;;;;;;;;;;26.66;57.36;98261.27;622648;228;64784;-66
2022/03/23 00:47:22;;;;;;;;;;;;;;;26.63;56.72;98261.00;622685;228;44021;-66
2022/03/23 00:49:50;;;;;;;;;;;;;;;26.63;57.86;98272.62;622664;228;64972;-66
2022/03/23 00:52:17;;;;;;;;;;;;;;;26.61;57.52;98269.38;622656;228;65662;-66
2022/03/23 00:54:45;;;;;;;;;;;;;;;26.61;57.54;98263.99;622640;228;64050;-66
2022/03/23 00:57:13;;;;;;;;;;;;;;;26.58;58.12;98277.23;622657;228;67959;-68
2022/03/23 00:59:41;;;;;;;;;;;;;;;26.56;57.42;98264.81;622722;228;64918;-67
2022/03/23 01:02:10;;;;;;;;;;;;;;;26.55;57.54;98274.00;622612;228;65430;-68
2022/03/23 01:04:38;;;;;;;;;;;;;;;26.55;56.97;98283.98;622678;228;67143;-68
2022/03/23 01:07:05;;;;;;;;;;;;;;;26.55;58.33;98275.89;622639;228;65572;-68
2022/03/23 01:09:35;;;;;;;;;;;;;;;26.51;56.97;98282.91;622623;228;44154;-68
2022/03/23 01:12:02;;;;;;;;;;;;;;;26.53;57.60;98296.92;622690;228;64939;-66
2022/03/23 01:14:30;;;;;;;;;;;;;;;26.51;58.41;98301.77;622710;228;64769;-66
2022/03/23 01:16:57;;;;;;;;;;;;;;;26.48;58.62;98300.41;622541;228;62920;-66
2022/03/23 01:19:27;;;;;;;;;;;;;;;26.47;58.33;98287.22;621297;228;67926;-66
2022/03/23 01:21:55;;;;;;;;;;;;;;;26.48;58.21;98296.91;621275;228;63938;-66
2022/03/23 01:24:23;;;;;;;;;;;;;;;26.46;58.45;98290.98;621272;228;65388;-66
2022/03/23 01:26:50;;;;;;;;;;;;;;;26.45;57.98;98289.38;621354;228;64630;-66
2022/03/23 01:29:18;;;;;;;;;;;;;;;26.44;58.45;98293.16;621314;228;65497;-66
2022/03/23 01:31:46;;;;;;;;;;;;;;;26.44;58.52;98295.86;621283;228;65868;-65
2022/03/23 01:34:14;;;;;;;;;;;;;;;26.42;58.52;98289.94;621276;228;67156;-65
2022/03/23 01:36:42;;;;;;;;;;;;;;;26.39;57.89;98291.28;621235;228;65132;-67
2022/03/23 01:39:10;;;;;;;;;;;;;;;26.40;58.00;98286.70;621352;228;65246;-67
2022/03/23 01:41:38;;;;;;;;;;;;;;;26.41;58.52;98296.39;621274;228;67192;-66
2022/03/23 01:44:13;;;;;;;;;;;;;;;26.38;58.25;98295.05;621279;228;67073;-65
2022/03/23 01:46:54;;;;;;;;;;;;;;;26.36;59.39;98291.84;620962;228;65358;-66
2022/03/23 01:49:23;;;;;;;;;;;;;;;26.35;59.45;98296.43;612969;228;67832;-66
2022/03/23 01:51:50;;;;;;;;;;;;;;;26.33;59.34;98298.59;621351;227;66686;-66
2022/03/23 01:54:18;;;;;;;;;;;;;;;26.33;60.05;98292.39;621297;228;66046;-66
2022/03/23 01:56:48;;;;;;;;;;;;;;;26.32;59.58;98299.65;621315;228;43014;-66
2022/03/23 01:59:20;;;;;;;;;;;;;;;26.31;58.78;98291.86;621217;228;67634;-66
2022/03/23 02:01:48;;;;;;;;;;;;;;;26.30;59.22;98285.67;621239;228;65946;-66
2022/03/23 02:04:16;;;;;;;;;;;;;;;26.29;58.54;98294.02;621314;228;67247;-66
2022/03/23 02:06:44;;;;;;;;;;;;;;;26.28;59.84;98293.21;621339;228;64847;-66
2022/03/23 02:09:12;;;;;;;;;;;;;;;26.27;57.90;98290.78;621263;228;65927;-66
2022/03/23 02:11:42;;;;;;;;;;;;;;;26.27;59.70;98288.91;621313;228;67706;-66
2022/03/23 02:14:10;;;;;;;;;;;;;;;26.25;59.44;98293.77;621338;228;67077;-66
2022/03/23 02:16:45;;;;;;;;;;;;;;;26.23;59.64;98287.03;621286;228;62801;-66
2022/03/23 02:19:13;;;;;;;;;;;;;;;26.22;59.54;98282.70;622473;228;64874;-66
2022/03/23 02:21:44;;;;;;;;;;;;;;;26.23;59.68;98287.03;622663;228;67117;-66
2022/03/23 02:24:13;;;;;;;;;;;;;;;26.20;59.72;98282.20;622672;228;63235;-66
2022/03/23 02:26:44;;;;;;;;;;;;;;;26.18;59.24;98282.45;622651;228;67267;-66
2022/03/23 02:29:13;;;;;;;;;;;;;;;26.20;59.31;98287.59;622670;228;66932;-67
2022/03/23 02:31:41;;;;;;;;;;;;;;;26.16;58.72;98292.70;622688;228;65137;-67
2022/03/23 02:34:08;;;;;;;;;;;;;;;26.18;58.86;98303.21;622745;228;67188;-65
2022/03/23 02:36:36;;;;;;;;;;;;;;;26.16;60.57;98294.59;622662;228;67057;-65
2022/03/23 02:39:03;;;;;;;;;;;;;;;26.14;59.72;98300.27;622661;228;65285;-65
2022/03/23 02:41:31;;;;;;;;;;;;;;;26.15;59.16;98301.87;622676;228;67161;-66
2022/03/23 02:44:00;;;;;;;;;;;;;;;26.14;59.76;98300.27;622704;228;66820;-66
2022/03/23 02:46:28;;;;;;;;;;;;;;;26.13;59.88;98299.44;622729;228;65238;-66
2022/03/23 02:48:56;;;;;;;;;;;;;;;26.11;59.60;98301.63;622687;228;67202;-66
2022/03/23 02:51:23;;;;;;;;;;;;;;;26.12;60.57;98299.73;622605;228;67302;-67
2022/03/23 03:02:12;;;;;;;;;;;;;;;26.08;59.75;98306.73;622691;228;65557;-66
2022/03/23 03:04:39;;;;;;;;;;;;;;;26.07;60.22;98308.62;622710;228;64971;-66
2022/03/23 03:07:07;;;;;;;;;;;;;;;26.05;61.02;98308.08;622691;228;64934;-66
2022/03/23 03:09:34;;;;;;;;;;;;;;;26.03;60.01;98306.77;622700;228;62979;-66
2022/03/23 03:12:02;;;;;;;;;;;;;;;26.02;59.61;98313.21;622661;228;64608;-67
2022/03/23 03:14:31;;;;;;;;;;;;;;;26.02;58.92;98305.13;622662;228;67154;-68
2022/03/23 03:16:59;;;;;;;;;;;;;;;26.02;60.18;98307.83;622630;228;65265;-67
2022/03/23 03:19:26;;;;;;;;;;;;;;;26.00;59.95;98307.28;622688;228;65064;-67
2022/03/23 03:21:54;;;;;;;;;;;;;;;26.00;61.37;98309.98;622662;228;65158;-67
2022/03/23 03:24:22;;;;;;;;;;;;;;;25.98;61.16;98306.77;622671;228;63174;-67
2022/03/23 03:26:50;;;;;;;;;;;;;;;25.97;60.96;98311.33;622634;228;65008;-67
2022/03/23 03:29:18;;;;;;;;;;;;;;;25.96;60.96;98303.53;622688;228;64952;-67
2022/03/23 03:31:45;;;;;;;;;;;;;;;25.95;60.54;98302.73;622674;228;65305;-66
2022/03/23 03:34:13;;;;;;;;;;;;;;;25.95;60.62;98310.81;622735;228;66937;-66
2022/03/23 03:36:41;;;;;;;;;;;;;;;25.93;60.29;98315.66;622672;228;64319;-66
2022/03/23 03:39:09;;;;;;;;;;;;;;;25.93;60.38;98309.47;622696;228;65266;-67
2022/03/23 03:41:36;;;;;;;;;;;;;;;25.94;61.59;98300.30;622691;228;66958;-66
2022/03/23 03:44:04;;;;;;;;;;;;;;;25.93;60.93;98304.89;622690;228;66807;-66
2022/03/23 03:46:31;;;;;;;;;;;;;;;25.90;60.06;98306.23;622686;228;65289;-66
2022/03/23 03:48:59;;;;;;;;;;;;;;;25.88;60.63;98300.30;622689;228;66828;-67
2022/03/23 03:51:26;;;;;;;;;;;;;;;25.87;60.39;98295.20;622695;228;66927;-66
2022/03/23 03:53:54;;;;;;;;;;;;;;;25.86;60.85;98299.80;622673;228;65520;-66
2022/03/23 03:56:21;;;;;;;;;;;;;;;25.88;60.57;98304.89;622694;228;66840;-66
2022/03/23 03:58:49;;;;;;;;;;;;;;;25.85;61.58;98303.55;622715;228;64811;-66
2022/03/23 04:01:16;;;;;;;;;;;;;;;25.83;61.50;98305.70;622653;228;63328;-66
2022/03/23 04:03:44;;;;;;;;;;;;;;;25.82;61.18;98304.06;622656;228;64836;-66
2022/03/23 04:06:11;;;;;;;;;;;;;;;25.83;60.81;98300.31;622659;228;65113;-67
2022/03/23 04:08:39;;;;;;;;;;;;;;;25.82;60.78;98301.37;622704;228;63111;-66
2022/03/23 04:11:06;;;;;;;;;;;;;;;25.82;61.42;98295.98;622646;228;64891;-66
2022/03/23 04:13:36;;;;;;;;;;;;;;;25.79;61.35;98296.53;622704;228;47983;-66
2022/03/23 04:16:03;;;;;;;;;;;;;;;25.78;60.56;98294.92;622632;228;65451;-66
2022/03/23 04:18:31;;;;;;;;;;;;;;;25.77;60.74;98297.88;621681;228;67192;-66
2022/03/23 04:20:59;;;;;;;;;;;;;;;25.75;60.73;98306.21;621310;228;66870;-66
2022/03/23 04:23:26;;;;;;;;;;;;;;;25.75;60.78;98305.41;621314;228;65357;-67
2022/03/23 04:25:54;;;;;;;;;;;;;;;25.75;60.78;98305.41;621269;228;66757;-67
2022/03/23 04:28:22;;;;;;;;;;;;;;;25.75;60.48;98308.91;621289;228;66815;-66
2022/03/23 04:30:49;;;;;;;;;;;;;;;25.72;60.44;98309.45;621278;228;63121;-67
2022/03/23 04:33:17;;;;;;;;;;;;;;;25.73;61.70;98305.70;621338;228;65209;-66
2022/03/23 04:35:45;;;;;;;;;;;;;;;25.73;61.45;98304.86;621261;228;66953;-67
2022/03/23 04:38:13;;;;;;;;;;;;;;;25.70;61.17;98300.86;621287;228;65109;-67
2022/03/23 04:40:41;;;;;;;;;;;;;;;25.69;61.34;98307.30;621312;228;67257;-67
2022/03/23 04:43:08;;;;;;;;;;;;;;;25.67;61.48;98312.97;621290;228;64851;-68
2022/03/23 04:45:36;;;;;;;;;;;;;;;25.67;61.30;98304.06;621324;228;65661;-67
2022/03/23 04:48:05;;;;;;;;;;;;;;;25.66;61.76;98303.27;621327;228;67145;-68
2022/03/23 04:50:34;;;;;;;;;;;;;;;25.65;61.91;98298.97;621284;228;64894;-68
2022/03/23 04:53:02;;;;;;;;;;;;;;;25.64;61.21;98299.23;621273;227;65251;-67
2022/03/23 04:55:29;;;;;;;;;;;;;;;25.65;61.64;98298.97;621267;227;66943;-68
2022/03/23 04:58:00;;;;;;;;;;;;;;;25.62;61.30;98294.13;621305;228;67226;-67
2022/03/23 05:00:26;;;;;;;;;;;;;;;25.61;60.77;98305.16;621281;228;65455;-68
2022/03/23 05:02:54;;;;;;;;;;;;;;;25.60;61.58;98295.48;621256;228;64791;-68
2022/03/23 05:05:21;;;;;;;;;;;;;;;25.59;61.52;98305.44;621306;228;66973;-68
2022/03/23 05:07:48;;;;;;;;;;;;;;;25.58;61.46;98303.80;621298;228;65070;-68
2022/03/23 05:10:16;;;;;;;;;;;;;;;25.58;61.56;98309.19;621271;228;64715;-68
2022/03/23 05:12:45;;;;;;;;;;;;;;;25.57;61.58;98309.48;621376;228;67195;-68
2022/03/23 05:15:14;;;;;;;;;;;;;;;25.56;61.88;98311.34;621244;228;63038;-68
2022/03/23 05:17:41;;;;;;;;;;;;;;;25.58;61.98;98313.77;621725;228;67146;-68
2022/03/23 05:20:10;;;;;;;;;;;;;;;25.57;61.59;98312.17;622568;228;65039;-67
2022/03/23 05:22:38;;;;;;;;;;;;;;;25.55;61.56;98317.00;622604;228;63283;-68
2022/03/23 05:25:06;;;;;;;;;;;;;;;25.55;61.84;98314.31;622669;228;67226;-68
2022/03/23 05:27:36;;;;;;;;;;;;;;;25.52;61.94;98314.86;622593;228;67034;-67
2022/03/23 05:30:05;;;;;;;;;;;;;;;25.52;60.68;98314.86;621422;228;63147;-68
2022/03/23 05:32:33;;;;;;;;;;;;;;;25.52;61.88;98312.97;622521;228;67233;-68
2022/03/23 05:35:00;;;;;;;;;;;;;;;25.52;61.67;98312.17;622643;228;64752;-67
2022/03/23 05:37:28;;;;;;;;;;;;;;;25.52;61.67;98312.17;622674;228;64760;-67
2022/03/23 05:39:55;;;;;;;;;;;;;;;25.51;61.56;98310.53;622677;228;64460;-67
2022/03/23 05:42:23;;;;;;;;;;;;;;;25.51;61.04;98319.44;622638;228;64976;-67
2022/03/23 05:44:50;;;;;;;;;;;;;;;25.51;61.85;98313.22;622625;228;63224;-67
2022/03/23 05:47:18;;;;;;;;;;;;;;;25.51;61.77;98310.53;622684;228;65145;-67
2022/03/23 05:49:45;;;;;;;;;;;;;;;25.50;62.11;98317.00;622687;228;64919;-67
2022/03/23 05:52:13;;;;;;;;;;;;;;;25.50;61.71;98314.31;622732;228;62815;-67
2022/03/23 05:54:40;;;;;;;;;;;;;;;25.50;61.25;98317.80;622693;228;66989;-67
2022/03/23 05:57:08;;;;;;;;;;;;;;;25.52;61.76;98312.17;622694;228;66977;-67
2022/03/23 05:59:35;;;;;;;;;;;;;;;25.50;61.95;98320.50;622660;228;65084;-67
2022/03/23 06:02:04;;;;;;;;;;;;;;;25.51;62.39;98318.61;622549;228;67050;-67
2022/03/23 06:04:32;;;;;;;;;;;;;;;25.51;62.06;98313.22;622634;228;66997;-67
2022/03/23 06:06:59;;;;;;;;;;;;;;;25.52;62.56;98320.24;622655;228;65322;-67
2022/03/23 06:09:27;;;;;;;;;;;;;;;25.50;62.44;98317.00;622568;228;67271;-67
2022/03/23 06:11:56;;;;;;;;;;;;;;;25.49;61.84;98323.47;622677;228;67015;-67
2022/03/23 06:14:23;;;;;;;;;;;;;;;25.51;61.73;98318.61;622644;228;65329;-67
2022/03/23 06:16:52;;;;;;;;;;;;;;;25.50;63.07;98317.00;622622;228;67152;-67
2022/03/23 06:19:19;;;;;;;;;;;;;;;25.49;62.13;98321.58;621177;228;64874;-67
2022/03/23 06:21:47;;;;;;;;;;;;;;;25.49;61.71;98313.51;621214;228;63250;-67
2022/03/23 06:24:14;;;;;;;;;;;;;;;25.49;62.11;98308.13;621254;228;64696;-67
2022/03/23 06:26:42;;;;;;;;;;;;;;;25.49;62.04;98312.70;621321;228;66875;-67
2022/03/23 06:29:09;;;;;;;;;;;;;;;25.49;62.20;98316.20;621287;228;65227;-67
2022/03/23 06:31:37;;;;;;;;;;;;;;;25.50;62.17;98317.80;621362;228;67086;-67
2022/03/23 06:34:07;;;;;;;;;;;;;;;25.50;62.39;98317.00;621289;228;67459;-67
2022/03/23 06:36:35;;;;;;;;;;;;;;;25.49;62.32;98318.09;621277;228;65243;-67
2022/03/23 06:39:03;;;;;;;;;;;;;;;25.49;62.49;98324.27;621311;228;67217;-67
2022/03/23 06:41:31;;;;;;;;;;;;;;;25.49;62.60;98321.58;621305;228;67129;-67
2022/03/23 06:43:59;;;;;;;;;;;;;;;25.49;61.87;98326.16;621359;228;66233;-67
2022/03/23 06:46:26;;;;;;;;;;;;;;;25.51;62.57;98315.91;621303;228;64971;-67
2022/03/23 06:48:54;;;;;;;;;;;;;;;25.50;62.66;98319.69;621285;228;64905;-67
2022/03/23 06:51:21;;;;;;;;;;;;;;;25.51;61.40;98319.44;621320;228;65238;-67
2022/03/23 06:53:49;;;;;;;;;;;;;;;25.52;62.10;98320.24;621301;228;66766;-67
2022/03/23 06:56:17;;;;;;;;;;;;;;;25.52;61.52;98320.24;621232;228;66953;-65
2022/03/23 06:58:44;;;;;;;;;;;;;;;25.51;61.33;98318.61;620586;228;65282;-67
2022/03/23 07:01:11;;;;;;;;;;;;;;;25.51;61.83;98324.82;621252;228;65017;-67
2022/03/23 07:03:39;;;;;;;;;;;;;;;25.55;61.40;98319.70;614964;228;67001;-67
2022/03/23 07:06:07;;;;;;;;;;;;;;;25.53;60.94;98316.46;613564;231;63151;-70
2022/03/23 07:11:19;;;;;;;;;;;;;;;25.56;61.29;98323.99;613146;231;66942;-68
2022/03/23 07:13:47;;;;;;;;;;;;;;;25.56;60.99;98321.30;613240;231;62874;-69
2022/03/23 07:16:14;;;;;;;;;;;;;;;25.59;62.03;98326.14;613540;231;64782;-69
2022/03/23 07:18:42;;;;;;;;;;;;;;;25.59;61.07;98321.59;609159;230;64840;-67
2022/03/23 07:21:10;;;;;;;;;;;;;;;25.58;57.95;98317.27;607896;233;62966;-65
2022/03/23 07:23:38;;;;;;;;;;;;;;;25.58;56.56;98314.58;607957;233;67089;-71
2022/03/23 07:26:05;;;;;;;;;;;;;;;25.66;59.46;98315.92;607915;233;67106;-66
2022/03/23 07:28:33;;;;;;;;;;;;;;;25.69;58.99;98323.45;607869;233;65423;-69
2022/03/23 07:31:01;;;;;;;;;;;;;;;25.71;59.58;98323.20;607948;233;67215;-69
2022/03/23 07:33:32;;;;;;;;;;;;;;;25.73;58.96;98319.16;607913;233;66834;-68
2022/03/23 07:35:59;;;;;;;;;;;;;;;25.76;59.12;98317.81;607955;233;63334;-69
2022/03/23 07:38:27;;;;;;;;;;;;;;;25.77;59.37;98314.84;607972;233;67221;-68
2022/03/23 07:40:54;;;;;;;;;;;;;;;25.83;58.92;98321.02;607965;233;66554;-66
2022/03/23 07:43:22;;;;;;;;;;;;;;;25.84;58.59;98310.02;607908;233;65327;-67
2022/03/23 07:45:49;;;;;;;;;;;;;;;25.87;58.95;98314.86;607928;233;66691;-66
2022/03/23 07:48:17;;;;;;;;;;;;;;;25.90;58.61;98317.01;607930;233;64573;-67
2022/03/23 07:50:44;;;;;;;;;;;;;;;25.91;57.49;98307.03;607940;233;65518;-67
2022/03/23 07:53:12;;;;;;;;;;;;;;;25.93;58.35;98310.27;608010;233;66951;-68
2022/03/23 07:55:39;;;;;;;;;;;;;;;25.95;58.92;98310.02;607915;233;64524;-69
2022/03/23 07:58:07;;;;;;;;;;;;;;;25.98;58.20;98301.39;607924;233;62923;-67
2022/03/23 08:00:34;;;;;;;;;;;;;;;26.00;57.44;98309.98;607959;233;64733;-67
2022/03/23 08:03:02;;;;;;;;;;;;;;;26.02;58.04;98307.83;607904;233;64841;-67
2022/03/23 08:05:30;;;;;;;;;;;;;;;26.06;58.47;98304.32;607940;233;63110;-66
2022/03/23 08:07:58;;;;;;;;;;;;;;;26.08;56.30;98298.64;607954;233;64802;-66
2022/03/23 08:10:25;;;;;;;;;;;;;;;26.10;57.57;98299.19;607907;233;64831;-66
2022/03/23 08:12:53;;;;;;;;;;;;;;;26.11;57.51;98295.43;607972;233;63484;-67
2022/03/23 08:15:21;;;;;;;;;;;;;;;26.14;58.21;98294.88;607951;233;67410;-76
2022/03/23 08:17:49;;;;;;;;;;;;;;;26.14;57.01;98289.49;610195;230;67025;-71
2022/03/23 08:20:39;;;;;;;;;;;;;;;26.15;58.49;98290.29;613703;231;63096;-70
2022/03/23 08:23:05;;;;;;;;;;;;;;;26.15;57.86;98293.78;613599;231;67157;-71
2022/03/23 08:25:33;;;;;;;;;;;;;;;26.16;56.48;98292.70;613644;231;67180;-70
2022/03/23 08:28:01;;;;;;;;;;;;;;;26.18;57.15;98285.16;613763;231;65369;-70
2022/03/23 08:30:31;;;;;;;;;;;;;;;26.20;57.14;98279.50;613718;231;68085;-70
2022/03/23 08:32:59;;;;;;;;;;;;;;;26.21;55.97;98283.80;613631;231;66875;-69
2022/03/23 08:35:26;;;;;;;;;;;;;;;26.21;58.13;98281.91;613688;231;65554;-72
2022/03/23 08:37:54;;;;;;;;;;;;;;;26.22;57.14;98271.93;613673;231;67376;-67
2022/03/23 08:40:21;;;;;;;;;;;;;;;26.22;58.03;98270.06;613700;231;66961;-65
2022/03/23 08:42:49;;;;;;;;;;;;;;;26.23;56.38;98285.14;613702;231;65191;-65
2022/03/23 08:45:17;;;;;;;;;;;;;;;26.23;57.43;98274.36;613645;231;67329;-68
2022/03/23 08:47:45;;;;;;;;;;;;;;;26.25;56.56;98274.91;613482;231;66703;-64
2022/03/23 08:50:13;;;;;;;;;;;;;;;26.18;58.43;98257.41;613663;231;65323;-67
2022/03/23 08:52:41;;;;;;;;;;;;;;;26.24;56.34;98267.88;613710;231;67180;-69
2022/03/23 08:55:10;;;;;;;;;;;;;;;26.27;56.61;98261.97;613715;231;64669;-64
2022/03/23 08:57:38;;;;;;;;;;;;;;;26.29;56.77;98265.17;613638;231;65243;-70
2022/03/23 09:00:06;;;;;;;;;;;;;;;26.29;56.98;98259.78;613548;231;67312;-71
2022/03/23 09:02:34;;;;;;;;;;;;;;;26.30;57.31;98249.80;613607;231;67518;-69
2022/03/23 09:05:01;;;;;;;;;;;;;;;26.31;57.73;98248.73;613689;231;65487;-68
2022/03/23 09:07:29;;;;;;;;;;;;;;;26.30;57.47;98239.86;613651;231;67223;-68
2022/03/23 09:09:56;;;;;;;;;;;;;;;26.30;57.73;98245.24;613652;231;64789;-69
2022/03/23 09:12:24;;;;;;;;;;;;;;;26.28;55.20;98236.62;613739;231;64204;-67
2022/03/23 09:14:51;;;;;;;;;;;;;;;26.30;57.00;98237.16;613509;231;67208;-80
2022/03/23 09:17:19;;;;;;;;;;;;;;;26.28;57.87;98233.92;613571;230;67222;-68
2022/03/23 09:19:47;;;;;;;;;;;;;;;26.28;57.46;98230.43;613693;231;65303;-69
2022/03/23 09:22:14;;;;;;;;;;;;;;;26.29;56.99;98234.73;613621;231;64341;-71
2022/03/23 09:24:42;;;;;;;;;;;;;;;26.29;55.83;98230.14;613668;231;64955;-69
2022/03/23 09:27:11;;;;;;;;;;;;;;;26.28;56.38;98228.53;613683;231;63222;-69
2022/03/23 09:29:39;;;;;;;;;;;;;;;26.31;55.46;98222.59;613609;231;67290;-69
2022/03/23 09:32:12;;;;;;;;;;;;;;;26.34;55.97;98213.95;613692;231;64761;-68
2022/03/23 09:34:37;;;;;;;;;;;;;;;26.35;55.09;98215.58;613555;231;63212;-66
2022/03/23 09:39:51;;;;;;;;;;;;;;;26.39;54.11;98210.44;613635;231;65016;-73
2022/03/23 09:42:19;;;;;;;;;;;;;;;26.38;54.39;98197.22;613655;231;63179;-68
2022/03/23 09:44:47;;;;;;;;;;;;;;;26.43;53.30;98205.28;613723;231;66901;-68
2022/03/23 09:47:15;;;;;;;;;;;;;;;26.47;53.79;98203.66;613704;231;67150;-67
2022/03/23 09:49:43;;;;;;;;;;;;;;;26.45;54.95;98203.92;613651;231;65158;-69
2022/03/23 09:52:10;;;;;;;;;;;;;;;26.46;53.54;98205.52;613623;231;67218;-68
2022/03/23 09:54:38;;;;;;;;;;;;;;;26.48;53.85;98197.17;613632;231;67042;-69
2022/03/23 09:57:06;;;;;;;;;;;;;;;26.49;52.77;98194.21;613646;231;65505;-66
2022/03/23 09:59:33;;;;;;;;;;;;;;;26.51;53.78;98194.75;613636;231;67189;-65
2022/03/23 10:02:03;;;;;;;;;;;;;;;26.51;54.14;98191.25;613704;231;66931;-65
2022/03/23 10:04:48;;;;;;;;;;;;;;;26.51;52.50;98191.25;613646;231;65318;-66
2022/03/23 10:07:32;;;;;;;;;;;;;;;26.54;51.76;98191.48;613699;231;64895;-66
2022/03/23 10:10:02;;;;;;;;;;;;;;;26.55;53.00;98182.34;613631;231;66711;-66
2022/03/23 10:12:40;;;;;;;;;;;;;;;26.58;52.02;98174.78;613638;231;63168;-64
2022/03/23 10:15:27;;;;;;;;;;;;;;;26.59;52.00;98165.59;613495;230;64929;-65
2022/03/23 10:18:13;;;;;;;;;;;;;;;26.60;50.85;98176.12;610983;230;65405;-68
2022/03/23 10:20:41;;;;;;;;;;;;;;;26.61;52.04;98175.02;607898;233;65430;-67
2022/03/23 10:23:08;;;;;;;;;;;;;;;26.63;51.34;98169.33;607922;233;67215;-69
2022/03/23 10:25:37;;;;;;;;;;;;;;;26.63;51.09;98161.23;607796;233;66868;-70
2022/03/23 10:28:06;;;;;;;;;;;;;;;26.66;50.53;98161.50;607802;233;63095;-71
2022/03/23 10:30:34;;;;;;;;;;;;;;;26.72;50.87;98154.98;607649;233;64875;-73
2022/03/23 10:33:02;;;;;;;;;;;;;;;26.75;50.68;98164.41;607850;233;67058;-71
2022/03/23 10:35:37;;;;;;;;;;;;;;;26.79;51.05;98151.95;607936;233;65344;-71
2022/03/23 10:38:21;;;;;;;;;;;;;;;26.80;51.59;98145.49;607662;233;64401;-72
2022/03/23 10:40:50;;;;;;;;;;;;;;;26.85;52.25;98144.66;607686;233;64896;-72
2022/03/23 10:43:19;;;;;;;;;;;;;;;26.85;52.29;98136.56;607845;233;62857;-72
2022/03/23 10:45:47;;;;;;;;;;;;;;;26.86;52.50;98138.97;606736;233;66941;-71
2022/03/23 10:48:16;;;;;;;;;;;;;;;26.89;52.30;98137.59;607939;233;66732;-70
2022/03/23 10:50:50;;;;;;;;;;;;;;;26.89;53.96;98137.59;607911;233;65453;-71
2022/03/23 10:53:23;;;;;;;;;;;;;;;26.90;51.97;98126.54;607675;233;67281;-68
2022/03/23 10:56:09;;;;;;;;;;;;;;;26.92;53.03;98132.43;606098;233;66967;-62
2022/03/23 10:58:37;;;;;;;;;;;;;;;26.88;53.33;98125.20;607778;233;65262;-65
2022/03/23 11:01:08;;;;;;;;;;;;;;;26.81;54.82;98119.32;607844;233;67959;-64
2022/03/23 11:03:40;;;;;;;;;;;;;;;26.78;54.01;98116.09;607932;233;67145;-61
2022/03/23 11:06:12;;;;;;;;;;;;;;;26.76;54.47;98120.16;608050;233;46573;-62
2022/03/23 11:08:40;;;;;;;;;;;;;;;26.73;54.18;98118.83;607658;233;67210;-62
2022/03/23 11:16:35;;;;;;;;;;;;;;;26.72;52.42;98095.66;598064;233;67291;-64
2022/03/23 11:18:59;;;;;;;;;;;;;;;26.73;52.58;98096.45;607691;230;64954;-71
2022/03/23 11:21:28;;;;;;;;;;;;;;;26.73;52.33;98102.66;608018;233;65301;-70
2022/03/23 11:23:56;;;;;;;;;;;;;;;26.73;52.37;98091.06;607767;233;66836;-73
2022/03/23 11:26:26;;;;;;;;;;;;;;;26.77;50.58;98082.14;607948;233;64660;-69
2022/03/23 11:28:54;;;;;;;;;;;;;;;26.82;49.88;98093.95;607945;233;64201;-68
2022/03/23 11:31:22;;;;;;;;;;;;;;;26.85;50.30;98090.72;607890;233;65919;-70
2022/03/23 11:33:53;;;;;;;;;;;;;;;26.87;50.82;98085.82;607922;233;66019;-69
2022/03/23 11:36:22;;;;;;;;;;;;;;;26.89;50.39;98091.74;607898;233;63121;-70
2022/03/23 11:38:51;;;;;;;;;;;;;;;26.90;50.82;98077.98;607873;233;66877;-70
2022/03/23 11:41:19;;;;;;;;;;;;;;;26.92;50.21;98070.39;607943;233;67076;-71
2022/03/23 11:43:47;;;;;;;;;;;;;;;26.94;50.24;98075.52;607663;233;66589;-69
2022/03/23 11:46:15;;;;;;;;;;;;;;;26.94;51.19;98064.73;607925;233;64851;-70
2022/03/23 11:48:52;;;;;;;;;;;;;;;26.93;50.95;98069.32;608005;233;64382;-68
2022/03/23 11:51:33;;;;;;;;;;;;;;;26.96;50.19;98073.34;607617;233;65409;-69
2022/03/23 11:54:20;;;;;;;;;;;;;;;26.95;50.49;98064.42;607939;233;64497;-65
2022/03/23 11:56:49;;;;;;;;;;;;;;;26.97;50.21;98080.34;607791;233;66933;-65
2022/03/23 11:59:23;;;;;;;;;;;;;;;26.96;50.62;98063.36;607705;233;62914;-64
2022/03/23 12:01:51;;;;;;;;;;;;;;;26.97;52.14;98064.16;607532;233;67222;-69
2022/03/23 12:04:19;;;;;;;;;;;;;;;26.95;52.19;98066.33;607924;233;66844;-67
2022/03/23 12:06:48;;;;;;;;;;;;;;;26.93;50.14;98052.34;607842;233;63005;-67
2022/03/23 12:09:34;;;;;;;;;;;;;;;26.96;49.93;98049.06;607542;233;64597;-67
2022/03/23 12:12:03;;;;;;;;;;;;;;;26.96;50.91;98047.17;607597;233;67447;-68
2022/03/23 12:14:37;;;;;;;;;;;;;;;26.96;50.42;98040.98;607932;233;63337;-66
2022/03/23 12:17:06;;;;;;;;;;;;;;;26.98;50.67;98044.17;607786;229;65009;-67
2022/03/23 12:19:35;;;;;;;;;;;;;;;26.97;50.06;98043.38;607920;233;64720;-68
2022/03/23 12:22:08;;;;;;;;;;;;;;;26.98;50.33;98041.47;607004;233;63095;-67
2022/03/23 12:24:37;;;;;;;;;;;;;;;26.97;50.18;98037.98;607891;233;64601;-68
2022/03/23 12:27:06;;;;;;;;;;;;;;;26.99;49.61;98043.90;607834;233;67133;-68
2022/03/23 12:29:36;;;;;;;;;;;;;;;26.99;50.17;98043.09;607777;233;65341;-66
2022/03/23 12:32:06;;;;;;;;;;;;;;;27.00;50.76;98037.40;607261;233;67061;-67
2022/03/23 12:34:33;;;;;;;;;;;;;;;27.01;50.06;98032.83;611957;230;64978;-70
2022/03/23 12:37:12;;;;;;;;;;;;;;;27.01;50.92;98028.23;609515;232;63077;-68
2022/03/23 12:39:40;;;;;;;;;;;;;;;27.04;48.28;98024.16;609311;230;67008;-67
2022/03/23 12:42:16;;;;;;;;;;;;;;;27.06;47.88;98024.66;609498;232;66764;-66
2022/03/23 12:44:47;;;;;;;;;;;;;;;27.11;47.63;98029.20;609494;232;65105;-66
2022/03/23 12:47:22;;;;;;;;;;;;;;;27.12;47.42;98033.50;609454;232;67223;-68
2022/03/23 12:58:16;;;;;;;;;;;;;;;27.16;48.05;98018.36;609517;232;66762;-68
2022/03/23 13:00:45;;;;;;;;;;;;;;;27.16;48.64;98024.59;609492;232;63229;-68
2022/03/23 13:03:14;;;;;;;;;;;;;;;27.16;48.50;98019.19;609487;232;65713;-68
2022/03/23 13:05:59;;;;;;;;;;;;;;;27.16;49.04;98008.39;609492;232;66653;-69
2022/03/23 13:08:33;;;;;;;;;;;;;;;27.17;48.67;98010.02;609552;232;65377;-68
2022/03/23 13:11:03;;;;;;;;;;;;;;;27.17;49.41;98015.42;609546;230;49598;-67
2022/03/23 13:13:38;;;;;;;;;;;;;;;27.17;49.09;97998.41;609531;232;65598;-69
2022/03/23 13:16:07;;;;;;;;;;;;;;;27.17;49.22;98004.63;609420;232;65187;-69
2022/03/23 13:18:37;;;;;;;;;;;;;;;27.18;49.70;98010.82;616103;229;47793;-68
2022/03/23 13:21:05;;;;;;;;;;;;;;;27.19;49.16;98009.72;618673;229;66913;-68
2022/03/23 13:23:33;;;;;;;;;;;;;;;27.19;49.22;98010.52;618508;229;63197;-68